Ionia, MI

11:02 AM EST on November 12, 2019 (GMT -0500)
Ionia

Weather History for KY70 - September, 2019

Change the Weather History Date:

Friday, September 13, 2019

  Actual Average (KGRR) Record (KGRR)
Temperature  
Mean Temperature 72 °F -  
Max Temperature 80 °F 74 °F 95 °F (1952)
Min Temperature 63 °F 53 °F 35 °F (1975)
Cooling Degree Days 6    
Growing Degree Days 22 (Base 50)    
Moisture  
Dew Point 62 °F    
Average Humidity 79    
Maximum Humidity 96    
Minimum Humidity 48    
Precipitation  
Precipitation 0.42 in - - ()
Sea Level Pressure  
Sea Level Pressure 30.03 in    
Wind  
Wind Speed 12 mph ()    
Max Wind Speed 24 mph    
Max Gust Speed 32 mph    
Visibility 9.0 miles    
Events Rain    
Averages and records for this station are not official NWS values.
T = Trace of Precipitation, MM = Missing Value Source: Averaged Metar Reports

Daily Weather History Graph

Daily Weather History Graph

Search for Another Location

Airport or City:

Astronomy

Sep. 13, 2019 Rise Set
Actual Time 7:17 AM EDT 7:54 PM EDT
Civil Twilight 6:48 AM EDT 8:22 PM EDT
Nautical Twilight 6:15 AM EDT 8:56 PM EDT
Astronomical Twilight 5:40 AM EDT 9:31 PM EDT
Moon 8:08 PM EDT (9/13) 6:30 AM EDT (9/13)
Length of Visible Light 13h 33m
Length of Day
12h 36m
Full, 100% of the Moon is Illuminated
Sep 13
Full
Sep 14
Full
Sep 21
Last Quarter
Sep 28
New
Oct 5
First Quarter

Hourly Weather History & Observations

Time (EDT) Temp. Heat Index Dew Point Humidity Pressure Visibility Wind Dir Wind Speed Gust Speed Precip Events Conditions
12:16 AM 65.7 °F - 64.2 °F 95% 30.16 in 10.0 mi ESE 12.7 mph - N/A   Overcast
12:35 AM 65.7 °F - 64.0 °F 94% 30.16 in 10.0 mi ESE 11.5 mph 16.1 mph N/A   Overcast
12:55 AM 65.7 °F - 64.0 °F 94% 30.14 in 10.0 mi ESE 11.5 mph - 0.01 in Rain Light Rain
1:19 AM 65.7 °F - 63.9 °F 94% 30.13 in 10.0 mi ESE 13.8 mph - N/A   Overcast
1:37 AM 65.7 °F - 63.9 °F 94% 30.13 in 10.0 mi ESE 12.7 mph 17.3 mph N/A   Overcast
1:55 AM 65.8 °F - 63.9 °F 93% 30.12 in 10.0 mi ESE 13.8 mph 20.7 mph N/A   Overcast
1:56 AM 65.8 °F - 63.9 °F 93% 30.12 in 10.0 mi ESE 12.7 mph 20.7 mph N/A   Overcast
2:15 AM 65.8 °F - 63.9 °F 93% 30.12 in 10.0 mi ESE 15.0 mph 18.4 mph N/A Rain Light Rain
2:16 AM 65.8 °F - 63.9 °F 93% 30.12 in 10.0 mi ESE 13.8 mph 18.4 mph N/A Rain Light Rain
2:35 AM 65.7 °F - 63.9 °F 94% 30.11 in 7.0 mi ESE 16.1 mph 23.0 mph 0.01 in Rain Rain
2:40 AM 65.7 °F - 63.9 °F 94% 30.11 in 5.0 mi SE 15.0 mph 23.0 mph 0.01 in Rain Light Rain
2:58 AM 65.7 °F - 63.9 °F 94% 30.10 in 10.0 mi SE 16.1 mph 23.0 mph 0.01 in   Overcast
3:16 AM 65.7 °F - 63.9 °F 94% 30.09 in 10.0 mi ESE 12.7 mph 20.7 mph N/A   Overcast
3:35 AM 65.5 °F - 63.7 °F 94% 30.09 in 10.0 mi SE 15.0 mph 19.6 mph N/A   Overcast
3:55 AM 65.5 °F - 63.5 °F 93% 30.09 in 10.0 mi SE 15.0 mph - N/A   Overcast
3:56 AM 65.5 °F - 63.5 °F 93% 30.09 in 10.0 mi SE 15.0 mph - N/A   Overcast
4:19 AM 65.3 °F - 63.1 °F 93% 30.07 in 10.0 mi SE 18.4 mph - 0.01 in Rain Rain
4:37 AM 64.9 °F - 63.1 °F 94% 30.06 in 7.0 mi SE 13.8 mph - 0.09 in Rain Light Rain
4:55 AM 65.3 °F - 63.5 °F 94% 30.05 in 10.0 mi SE 11.5 mph 19.6 mph 0.10 in   Overcast
4:56 AM 65.3 °F - 63.5 °F 94% 30.05 in 10.0 mi SE 13.8 mph 19.6 mph 0.10 in   Overcast
5:15 AM 65.3 °F - 63.5 °F 94% 30.05 in 10.0 mi SE 12.7 mph - N/A   Overcast
5:16 AM 65.3 °F - 63.5 °F 94% 30.05 in 10.0 mi SE 12.7 mph - N/A   Overcast
5:35 AM 65.3 °F - 63.5 °F 94% 30.05 in 10.0 mi SE 11.5 mph 17.3 mph N/A   Overcast
5:40 AM 65.5 °F - 63.7 °F 94% 30.05 in 10.0 mi SE 11.5 mph 17.3 mph N/A   Overcast
5:58 AM 65.7 °F - 63.9 °F 94% 30.05 in 10.0 mi SE 9.2 mph 16.1 mph N/A   Overcast
6:16 AM 66.2 °F - 64.4 °F 94% 30.04 in 10.0 mi SSE 11.5 mph 19.6 mph N/A   Overcast
6:35 AM 66.4 °F - 64.4 °F 93% 30.05 in 10.0 mi SSE 12.7 mph 23.0 mph N/A   Overcast
6:55 AM 66.7 °F - 64.6 °F 93% 30.09 in 10.0 mi WNW 11.5 mph - N/A   Overcast
7:19 AM 66.2 °F - 64.6 °F 94% 30.07 in 5.0 mi Calm Calm - 0.13 in Rain Rain
7:37 AM 66.2 °F - 64.8 °F 95% 30.06 in 10.0 mi SE 3.5 mph - 0.13 in Rain Light Rain
7:56 AM 66.4 °F - 64.8 °F 95% 30.06 in 7.0 mi SE 5.8 mph - 0.14 in   Overcast
8:15 AM 66.4 °F - 64.8 °F 95% 30.05 in 7.0 mi ESE 5.8 mph - N/A   Overcast
8:35 AM 66.4 °F - 64.9 °F 95% 30.05 in 5.0 mi ESE 6.9 mph - N/A   Overcast
8:40 AM 66.4 °F - 64.8 °F 95% 30.05 in 5.0 mi ESE 5.8 mph - N/A   Overcast
8:58 AM 66.6 °F - 64.9 °F 95% 30.07 in 7.0 mi Calm Calm - N/A   Overcast
9:16 AM 66.6 °F - 65.3 °F 96% 30.06 in 5.0 mi East 4.6 mph - N/A Rain Rain
9:35 AM 66.6 °F - 65.3 °F 96% 30.07 in 4.0 mi East 3.5 mph - N/A Rain Light Rain
9:55 AM 66.4 °F - 65.1 °F 96% 30.04 in 2.0 mi East 6.9 mph - 0.09 in Rain Rain
9:56 AM 66.4 °F - 64.9 °F 95% 30.03 in 2.0 mi East 5.8 mph - 0.09 in Rain Rain
10:18 AM 67.1 °F - 65.7 °F 95% 30.03 in 3.0 mi ESE 8.1 mph - 0.02 in Rain Light Rain
10:37 AM 67.1 °F - 65.8 °F 96% 30.02 in 2.5 mi ESE 8.1 mph - 0.06 in Rain Rain
10:55 AM 67.8 °F - 66.4 °F 95% 30.02 in 3.0 mi SE 10.4 mph - 0.07 in Rain Light Rain
11:15 AM 69.1 °F - 67.8 °F 96% 30.00 in 4.0 mi SE 12.7 mph - N/A   Overcast
11:40 AM 71.1 °F - 69.3 °F 94% 29.99 in 7.0 mi SSE 9.2 mph - N/A   Overcast
11:58 AM 72.3 °F - 69.8 °F 92% 29.99 in 10.0 mi South 10.4 mph 17.3 mph N/A   Overcast
12:16 PM 72.7 °F - 70.0 °F 91% 29.98 in 10.0 mi South 12.7 mph - N/A Rain Light Rain
12:35 PM 73.4 °F - 70.3 °F 90% 29.97 in 10.0 mi South 13.8 mph 18.4 mph N/A Rain Light Rain
12:55 PM 75.2 °F - 71.1 °F 87% 29.98 in 10.0 mi SSW 12.7 mph 19.6 mph N/A   Scattered Clouds
1:19 PM 76.5 °F - 71.1 °F 83% 29.97 in 10.0 mi SSW 11.5 mph - N/A   Overcast
1:37 PM 76.6 °F - 70.9 °F 82% 29.97 in 10.0 mi SSW 12.7 mph 18.4 mph N/A   Overcast
1:55 PM 77.0 °F - 70.5 °F 80% 29.98 in 10.0 mi SSW 13.8 mph 21.9 mph N/A   Overcast
2:15 PM 79.2 °F - 70.5 °F 75% 29.97 in 10.0 mi SW 20.7 mph 26.5 mph N/A   Mostly Cloudy
2:35 PM 79.7 °F - 68.7 °F 69% 29.96 in 10.0 mi SW 15.0 mph 24.2 mph N/A   Scattered Clouds
2:58 PM 80.2 °F 82.5 °F 66.7 °F 63% 29.96 in 10.0 mi WSW 17.3 mph 25.3 mph N/A   Scattered Clouds
3:15 PM 79.7 °F - 65.1 °F 61% 29.96 in 10.0 mi WSW 19.6 mph 26.5 mph N/A   Clear
3:35 PM 80.1 °F 81.7 °F 63.9 °F 58% 29.96 in 10.0 mi WSW 17.3 mph 27.6 mph N/A   Scattered Clouds
3:36 PM 80.1 °F 81.7 °F 63.9 °F 58% 29.96 in 10.0 mi WSW 18.4 mph 27.6 mph N/A   Scattered Clouds
3:55 PM 80.4 °F 81.5 °F 61.7 °F 53% 29.95 in 10.0 mi WSW 20.7 mph 25.3 mph N/A   Clear
4:19 PM 79.7 °F - 58.6 °F 48% 29.95 in 10.0 mi West 18.4 mph 28.8 mph N/A   Clear
4:37 PM 78.6 °F - 59.7 °F 52% 29.95 in 10.0 mi WSW 18.4 mph 27.6 mph N/A   Clear
4:55 PM 78.8 °F - 61.0 °F 54% 29.95 in 10.0 mi WSW 18.4 mph 24.2 mph N/A   Scattered Clouds
4:56 PM 78.6 °F - 61.0 °F 55% 29.95 in 10.0 mi WSW 18.4 mph 24.2 mph N/A   Scattered Clouds
5:15 PM 78.8 °F - 61.2 °F 55% 29.96 in 10.0 mi WSW 24.2 mph 29.9 mph N/A   Mostly Cloudy
5:16 PM 78.6 °F - 61.2 °F 55% 29.96 in 10.0 mi WSW 23.0 mph 29.9 mph N/A   Mostly Cloudy
5:39 PM 76.8 °F - 61.7 °F 59% 29.96 in 10.0 mi WSW 23.0 mph 27.6 mph N/A   Mostly Cloudy
5:57 PM 75.4 °F - 61.2 °F 61% 29.97 in 10.0 mi WSW 21.9 mph 28.8 mph N/A   Mostly Cloudy
6:15 PM 74.5 °F - 58.5 °F 57% 29.98 in 10.0 mi WSW 19.6 mph 32.2 mph N/A   Mostly Cloudy
6:16 PM 74.5 °F - 58.5 °F 57% 29.98 in 10.0 mi WSW 17.3 mph 32.2 mph N/A   Mostly Cloudy
6:35 PM 73.4 °F - 59.0 °F 61% 29.99 in 10.0 mi WSW 16.1 mph 26.5 mph N/A   Scattered Clouds
6:55 PM 72.3 °F - 58.6 °F 62% 29.99 in 10.0 mi WSW 15.0 mph 25.3 mph N/A   Scattered Clouds
7:18 PM 72.0 °F - 58.1 °F 62% 29.99 in 10.0 mi WSW 18.4 mph 23.0 mph N/A   Mostly Cloudy
7:36 PM 71.6 °F - 57.6 °F 61% 30.00 in 10.0 mi West 13.8 mph 20.7 mph N/A   Overcast
7:55 PM 70.0 °F - 57.6 °F 65% 30.01 in 10.0 mi WSW 11.5 mph 17.3 mph N/A   Mostly Cloudy
7:56 PM 70.0 °F - 57.4 °F 64% 30.01 in 10.0 mi WSW 12.7 mph - N/A   Mostly Cloudy
8:15 PM 69.3 °F - 56.1 °F 63% 30.01 in 10.0 mi WSW 18.4 mph 23.0 mph N/A   Mostly Cloudy
8:16 PM 69.3 °F - 55.9 °F 62% 30.01 in 10.0 mi WSW 17.3 mph 23.0 mph N/A   Mostly Cloudy
8:39 PM 68.5 °F - 54.0 °F 60% 30.02 in 10.0 mi WSW 15.0 mph 24.2 mph N/A   Mostly Cloudy
8:57 PM 67.6 °F - 53.8 °F 61% 30.03 in 10.0 mi West 17.3 mph 21.9 mph N/A   Mostly Cloudy
9:15 PM 67.1 °F - 53.8 °F 62% 30.04 in 10.0 mi West 9.2 mph - N/A   Mostly Cloudy
9:35 PM 67.1 °F - 54.0 °F 63% 30.04 in 10.0 mi West 18.4 mph 23.0 mph N/A   Overcast
9:36 PM 67.1 °F - 54.0 °F 63% 30.04 in 10.0 mi West 17.3 mph 23.0 mph N/A   Overcast
9:55 PM 66.9 °F - 53.2 °F 61% 30.05 in 10.0 mi West 13.8 mph 21.9 mph N/A   Overcast
10:00 PM 66.7 °F - 53.4 °F 62% 30.05 in 10.0 mi West 6.9 mph 21.9 mph N/A   Mostly Cloudy
10:18 PM 65.7 °F - 52.9 °F 63% 30.05 in 10.0 mi West 13.8 mph 18.4 mph N/A   Scattered Clouds
10:36 PM 65.1 °F - 52.2 °F 63% 30.05 in 10.0 mi West 12.7 mph 20.7 mph N/A   Scattered Clouds
10:55 PM 64.8 °F - 52.2 °F 64% 30.06 in 10.0 mi West 12.7 mph 17.3 mph N/A   Scattered Clouds
10:56 PM 64.8 °F - 52.2 °F 64% 30.06 in 10.0 mi West 12.7 mph 17.3 mph N/A   Scattered Clouds
11:15 PM 64.4 °F - 52.3 °F 65% 30.07 in 10.0 mi West 9.2 mph 18.4 mph N/A   Scattered Clouds
11:16 PM 64.4 °F - 52.3 °F 65% 30.07 in 10.0 mi West 11.5 mph 18.4 mph N/A   Scattered Clouds
11:39 PM 63.7 °F - 52.0 °F 66% 30.07 in 10.0 mi West 8.1 mph - N/A   Clear
11:57 PM 63.3 °F - 52.2 °F 67% 30.08 in 10.0 mi West 6.9 mph - N/A   Scattered Clouds